sensor_id;sensor_type;location;lat;lon;timestamp;temperature;humidity
12771;DHT22;6449;47.666;9.160;2022-08-01T00:01:48;21.00;99.90
12771;DHT22;6449;47.666;9.160;2022-08-01T00:06:41;21.00;99.90
12771;DHT22;6449;47.666;9.160;2022-08-01T00:11:36;21.00;99.90
12771;DHT22;6449;47.666;9.160;2022-08-01T00:16:30;20.90;99.90
12771;DHT22;6449;47.666;9.160;2022-08-01T00:21:23;20.80;99.90
12771;DHT22;6449;47.666;9.160;2022-08-01T00:26:16;20.60;99.90
12771;DHT22;6449;47.666;9.160;2022-08-01T00:31:12;20.50;99.90
12771;DHT22;6449;47.666;9.160;2022-08-01T00:36:05;20.50;99.90
12771;DHT22;6449;47.666;9.160;2022-08-01T00:40:59;20.50;99.90
12771;DHT22;6449;47.666;9.160;2022-08-01T00:45:52;20.30;99.90
12771;DHT22;6449;47.666;9.160;2022-08-01T00:50:47;20.20;99.90
12771;DHT22;6449;47.666;9.160;2022-08-01T00:55:41;20.30;99.90
12771;DHT22;6449;47.666;9.160;2022-08-01T01:00:35;20.10;99.90
12771;DHT22;6449;47.666;9.160;2022-08-01T01:05:52;20.00;99.90
12771;DHT22;6449;47.666;9.160;2022-08-01T01:10:57;19.90;99.90
12771;DHT22;6449;47.666;9.160;2022-08-01T01:15:59;20.00;99.90
12771;DHT22;6449;47.666;9.160;2022-08-01T01:21:00;19.90;99.90
12771;DHT22;6449;47.666;9.160;2022-08-01T01:26:19;20.10;99.90
12771;DHT22;6449;47.666;9.160;2022-08-01T01:31:24;19.90;99.90
12771;DHT22;6449;47.666;9.160;2022-08-01T01:36:21;19.80;99.90
12771;DHT22;6449;47.666;9.160;2022-08-01T01:41:18;19.90;99.90
12771;DHT22;6449;47.666;9.160;2022-08-01T01:46:15;19.80;99.90
12771;DHT22;6449;47.666;9.160;2022-08-01T01:51:16;19.80;99.90
12771;DHT22;6449;47.666;9.160;2022-08-01T01:56:11;19.70;99.90
12771;DHT22;6449;47.666;9.160;2022-08-01T02:01:09;19.70;99.90
12771;DHT22;6449;47.666;9.160;2022-08-01T02:06:06;19.60;99.90
12771;DHT22;6449;47.666;9.160;2022-08-01T02:11:03;19.60;99.90
12771;DHT22;6449;47.666;9.160;2022-08-01T02:16:15;19.60;99.90
12771;DHT22;6449;47.666;9.160;2022-08-01T02:21:13;19.70;99.90
12771;DHT22;6449;47.666;9.160;2022-08-01T02:26:16;19.70;99.90
12771;DHT22;6449;47.666;9.160;2022-08-01T02:31:13;19.50;99.90
12771;DHT22;6449;47.666;9.160;2022-08-01T02:36:11;19.30;99.90
12771;DHT22;6449;47.666;9.160;2022-08-01T02:41:26;19.30;99.90
12771;DHT22;6449;47.666;9.160;2022-08-01T02:46:23;19.30;99.90
12771;DHT22;6449;47.666;9.160;2022-08-01T02:51:23;19.30;99.90
12771;DHT22;6449;47.666;9.160;2022-08-01T02:56:19;19.40;99.90
12771;DHT22;6449;47.666;9.160;2022-08-01T03:01:17;19.40;99.90
12771;DHT22;6449;47.666;9.160;2022-08-01T03:06:13;19.30;99.90
12771;DHT22;6449;47.666;9.160;2022-08-01T03:11:08;19.40;99.90
12771;DHT22;6449;47.666;9.160;2022-08-01T03:16:04;19.30;99.90
12771;DHT22;6449;47.666;9.160;2022-08-01T03:21:00;19.00;99.90
12771;DHT22;6449;47.666;9.160;2022-08-01T03:25:56;19.10;99.90
12771;DHT22;6449;47.666;9.160;2022-08-01T03:30:52;19.00;99.90
12771;DHT22;6449;47.666;9.160;2022-08-01T03:35:49;19.00;99.90
12771;DHT22;6449;47.666;9.160;2022-08-01T03:40:52;18.70;99.90
12771;DHT22;6449;47.666;9.160;2022-08-01T03:45:51;18.40;99.90
12771;DHT22;6449;47.666;9.160;2022-08-01T03:50:48;18.40;99.90
12771;DHT22;6449;47.666;9.160;2022-08-01T03:55:44;18.50;99.90
12771;DHT22;6449;47.666;9.160;2022-08-01T04:00:39;18.60;99.90
12771;DHT22;6449;47.666;9.160;2022-08-01T04:05:34;18.70;99.90
12771;DHT22;6449;47.666;9.160;2022-08-01T04:10:28;18.70;99.90
12771;DHT22;6449;47.666;9.160;2022-08-01T04:15:22;18.50;99.90
12771;DHT22;6449;47.666;9.160;2022-08-01T04:20:17;18.50;99.90
12771;DHT22;6449;47.666;9.160;2022-08-01T04:25:14;18.60;99.90
12771;DHT22;6449;47.666;9.160;2022-08-01T04:30:13;18.70;99.90
12771;DHT22;6449;47.666;9.160;2022-08-01T04:35:13;18.60;99.90
12771;DHT22;6449;47.666;9.160;2022-08-01T04:40:32;18.60;99.90
12771;DHT22;6449;47.666;9.160;2022-08-01T04:45:28;18.70;99.90
12771;DHT22;6449;47.666;9.160;2022-08-01T04:50:24;18.50;99.90
12771;DHT22;6449;47.666;9.160;2022-08-01T04:55:18;18.50;99.90
12771;DHT22;6449;47.666;9.160;2022-08-01T05:00:14;18.60;99.90
12771;DHT22;6449;47.666;9.160;2022-08-01T05:05:09;18.70;99.90
12771;DHT22;6449;47.666;9.160;2022-08-01T05:10:06;18.80;99.90
12771;DHT22;6449;47.666;9.160;2022-08-01T05:15:00;19.20;99.90
12771;DHT22;6449;47.666;9.160;2022-08-01T05:19:53;19.50;99.90
12771;DHT22;6449;47.666;9.160;2022-08-01T05:24:47;19.70;99.90
12771;DHT22;6449;47.666;9.160;2022-08-01T05:29:42;19.80;99.90
12771;DHT22;6449;47.666;9.160;2022-08-01T05:34:39;19.90;99.90
12771;DHT22;6449;47.666;9.160;2022-08-01T05:39:48;19.90;99.90
12771;DHT22;6449;47.666;9.160;2022-08-01T05:44:53;19.90;99.90
12771;DHT22;6449;47.666;9.160;2022-08-01T05:49:46;19.90;99.90
12771;DHT22;6449;47.666;9.160;2022-08-01T05:54:40;19.80;99.90
12771;DHT22;6449;47.666;9.160;2022-08-01T05:59:33;20.00;99.90
12771;DHT22;6449;47.666;9.160;2022-08-01T06:04:28;20.10;99.90
12771;DHT22;6449;47.666;9.160;2022-08-01T06:09:22;20.30;99.90
12771;DHT22;6449;47.666;9.160;2022-08-01T06:14:24;20.40;99.90
12771;DHT22;6449;47.666;9.160;2022-08-01T06:19:20;20.50;99.90
12771;DHT22;6449;47.666;9.160;2022-08-01T06:24:15;20.60;99.90
12771;DHT22;6449;47.666;9.160;2022-08-01T06:29:08;20.60;99.90
12771;DHT22;6449;47.666;9.160;2022-08-01T06:34:03;20.60;99.90
12771;DHT22;6449;47.666;9.160;2022-08-01T06:38:56;20.70;99.90
12771;DHT22;6449;47.666;9.160;2022-08-01T06:43:51;20.80;99.90
12771;DHT22;6449;47.666;9.160;2022-08-01T06:48:45;20.80;99.90
12771;DHT22;6449;47.666;9.160;2022-08-01T06:53:38;20.90;99.90
12771;DHT22;6449;47.666;9.160;2022-08-01T06:58:34;21.10;99.90
12771;DHT22;6449;47.666;9.160;2022-08-01T07:03:29;21.10;99.90
12771;DHT22;6449;47.666;9.160;2022-08-01T07:08:43;21.20;99.90
12771;DHT22;6449;47.666;9.160;2022-08-01T07:13:36;21.40;99.90
12771;DHT22;6449;47.666;9.160;2022-08-01T07:18:36;21.50;99.90
12771;DHT22;6449;47.666;9.160;2022-08-01T07:23:29;21.80;99.90
12771;DHT22;6449;47.666;9.160;2022-08-01T07:28:27;22.00;99.90
12771;DHT22;6449;47.666;9.160;2022-08-01T07:33:21;22.10;99.90
12771;DHT22;6449;47.666;9.160;2022-08-01T07:38:16;22.30;99.90
12771;DHT22;6449;47.666;9.160;2022-08-01T07:43:10;22.60;99.90
12771;DHT22;6449;47.666;9.160;2022-08-01T07:48:04;22.90;99.90
12771;DHT22;6449;47.666;9.160;2022-08-01T07:53:00;23.00;99.90
12771;DHT22;6449;47.666;9.160;2022-08-01T07:57:55;23.30;99.90
12771;DHT22;6449;47.666;9.160;2022-08-01T08:02:49;23.60;99.90
12771;DHT22;6449;47.666;9.160;2022-08-01T08:07:42;23.60;99.90
12771;DHT22;6449;47.666;9.160;2022-08-01T08:12:35;23.80;99.90
12771;DHT22;6449;47.666;9.160;2022-08-01T08:17:31;23.90;99.90
12771;DHT22;6449;47.666;9.160;2022-08-01T08:22:27;24.10;99.90
12771;DHT22;6449;47.666;9.160;2022-08-01T08:27:23;24.50;99.90
12771;DHT22;6449;47.666;9.160;2022-08-01T08:32:17;24.60;99.90
12771;DHT22;6449;47.666;9.160;2022-08-01T08:37:12;24.90;99.90
12771;DHT22;6449;47.666;9.160;2022-08-01T08:42:07;25.10;99.90
12771;DHT22;6449;47.666;9.160;2022-08-01T08:47:02;25.30;99.90
12771;DHT22;6449;47.666;9.160;2022-08-01T08:52:00;25.40;99.90
12771;DHT22;6449;47.666;9.160;2022-08-01T08:56:58;25.40;99.90
12771;DHT22;6449;47.666;9.160;2022-08-01T09:01:53;25.60;99.90
12771;DHT22;6449;47.666;9.160;2022-08-01T09:06:47;25.80;99.90
12771;DHT22;6449;47.666;9.160;2022-08-01T09:11:41;26.10;99.90
12771;DHT22;6449;47.666;9.160;2022-08-01T09:17:00;26.40;99.90
12771;DHT22;6449;47.666;9.160;2022-08-01T09:21:56;26.30;99.90
12771;DHT22;6449;47.666;9.160;2022-08-01T09:26:51;26.30;99.90
12771;DHT22;6449;47.666;9.160;2022-08-01T09:31:49;26.60;99.90
12771;DHT22;6449;47.666;9.160;2022-08-01T09:36:47;26.70;99.90
12771;DHT22;6449;47.666;9.160;2022-08-01T09:41:45;27.00;99.90
12771;DHT22;6449;47.666;9.160;2022-08-01T09:46:51;26.90;99.90
12771;DHT22;6449;47.666;9.160;2022-08-01T09:51:45;27.10;99.90
12771;DHT22;6449;47.666;9.160;2022-08-01T09:56:51;27.40;99.90
12771;DHT22;6449;47.666;9.160;2022-08-01T10:01:46;27.40;99.90
12771;DHT22;6449;47.666;9.160;2022-08-01T10:06:44;27.60;99.90
12771;DHT22;6449;47.666;9.160;2022-08-01T10:11:42;27.70;99.90
12771;DHT22;6449;47.666;9.160;2022-08-01T10:16:36;27.80;99.90
12771;DHT22;6449;47.666;9.160;2022-08-01T10:21:32;27.80;99.90
12771;DHT22;6449;47.666;9.160;2022-08-01T10:26:50;27.70;99.90
12771;DHT22;6449;47.666;9.160;2022-08-01T10:31:47;27.90;99.90
12771;DHT22;6449;47.666;9.160;2022-08-01T10:36:44;27.90;99.90
12771;DHT22;6449;47.666;9.160;2022-08-01T10:41:39;27.90;99.90
12771;DHT22;6449;47.666;9.160;2022-08-01T10:46:34;28.00;99.90
12771;DHT22;6449;47.666;9.160;2022-08-01T10:51:37;28.10;99.90
12771;DHT22;6449;47.666;9.160;2022-08-01T10:56:47;28.20;99.90
12771;DHT22;6449;47.666;9.160;2022-08-01T11:01:56;28.20;99.90
12771;DHT22;6449;47.666;9.160;2022-08-01T11:06:54;28.10;99.90
12771;DHT22;6449;47.666;9.160;2022-08-01T11:12:03;28.20;99.90
12771;DHT22;6449;47.666;9.160;2022-08-01T11:17:33;28.10;99.90
12771;DHT22;6449;47.666;9.160;2022-08-01T11:22:33;28.10;99.90
12771;DHT22;6449;47.666;9.160;2022-08-01T11:28:19;28.10;99.90
12771;DHT22;6449;47.666;9.160;2022-08-01T11:38:50;28.00;99.90
12771;DHT22;6449;47.666;9.160;2022-08-01T11:44:08;28.10;99.90
12771;DHT22;6449;47.666;9.160;2022-08-01T11:49:23;28.10;99.90
12771;DHT22;6449;47.666;9.160;2022-08-01T11:54:26;28.30;99.90
12771;DHT22;6449;47.666;9.160;2022-08-01T11:59:28;28.50;99.90
12771;DHT22;6449;47.666;9.160;2022-08-01T12:04:52;28.30;99.90
12771;DHT22;6449;47.666;9.160;2022-08-01T12:09:57;28.20;99.90
12771;DHT22;6449;47.666;9.160;2022-08-01T12:14:54;28.20;99.90
12771;DHT22;6449;47.666;9.160;2022-08-01T12:19:50;28.20;99.90
12771;DHT22;6449;47.666;9.160;2022-08-01T12:24:43;28.30;99.90
12771;DHT22;6449;47.666;9.160;2022-08-01T12:29:39;28.10;99.90
12771;DHT22;6449;47.666;9.160;2022-08-01T12:34:35;27.80;99.90
12771;DHT22;6449;47.666;9.160;2022-08-01T12:39:33;27.90;99.90
12771;DHT22;6449;47.666;9.160;2022-08-01T12:44:31;28.00;99.90
12771;DHT22;6449;47.666;9.160;2022-08-01T12:49:26;28.10;99.90
12771;DHT22;6449;47.666;9.160;2022-08-01T12:54:20;28.10;99.90
12771;DHT22;6449;47.666;9.160;2022-08-01T12:59:21;28.10;99.90
12771;DHT22;6449;47.666;9.160;2022-08-01T13:04:16;28.20;99.90
12771;DHT22;6449;47.666;9.160;2022-08-01T13:09:11;28.30;99.90
12771;DHT22;6449;47.666;9.160;2022-08-01T13:14:05;28.30;99.90
12771;DHT22;6449;47.666;9.160;2022-08-01T13:18:59;28.20;99.90
12771;DHT22;6449;47.666;9.160;2022-08-01T13:24:03;27.90;99.90
12771;DHT22;6449;47.666;9.160;2022-08-01T13:29:05;27.70;99.90
12771;DHT22;6449;47.666;9.160;2022-08-01T13:33:59;27.90;99.90
12771;DHT22;6449;47.666;9.160;2022-08-01T13:38:52;27.70;99.90
12771;DHT22;6449;47.666;9.160;2022-08-01T13:44:05;27.50;99.90
12771;DHT22;6449;47.666;9.160;2022-08-01T13:49:00;27.20;99.90
12771;DHT22;6449;47.666;9.160;2022-08-01T13:54:07;27.30;99.90
12771;DHT22;6449;47.666;9.160;2022-08-01T13:59:00;27.50;99.90
12771;DHT22;6449;47.666;9.160;2022-08-01T14:03:56;27.70;99.90
12771;DHT22;6449;47.666;9.160;2022-08-01T14:08:49;27.70;99.90
12771;DHT22;6449;47.666;9.160;2022-08-01T14:13:42;27.70;99.90
12771;DHT22;6449;47.666;9.160;2022-08-01T14:18:37;27.70;99.90
12771;DHT22;6449;47.666;9.160;2022-08-01T14:23:36;27.80;99.90
12771;DHT22;6449;47.666;9.160;2022-08-01T14:28:30;27.60;99.90
12771;DHT22;6449;47.666;9.160;2022-08-01T14:33:24;27.40;99.90
12771;DHT22;6449;47.666;9.160;2022-08-01T14:38:18;27.30;99.90
12771;DHT22;6449;47.666;9.160;2022-08-01T14:43:24;27.30;99.90
12771;DHT22;6449;47.666;9.160;2022-08-01T14:48:24;27.50;99.90
12771;DHT22;6449;47.666;9.160;2022-08-01T14:53:17;27.70;99.90
12771;DHT22;6449;47.666;9.160;2022-08-01T14:58:11;27.70;99.90
12771;DHT22;6449;47.666;9.160;2022-08-01T15:03:05;27.70;99.90
12771;DHT22;6449;47.666;9.160;2022-08-01T15:07:59;27.60;99.90
12771;DHT22;6449;47.666;9.160;2022-08-01T15:12:52;27.40;99.90
12771;DHT22;6449;47.666;9.160;2022-08-01T15:17:47;27.50;99.90
12771;DHT22;6449;47.666;9.160;2022-08-01T15:22:42;27.50;99.90
12771;DHT22;6449;47.666;9.160;2022-08-01T15:27:35;27.60;99.90
12771;DHT22;6449;47.666;9.160;2022-08-01T15:32:29;27.60;99.90
12771;DHT22;6449;47.666;9.160;2022-08-01T15:37:22;27.60;99.90
12771;DHT22;6449;47.666;9.160;2022-08-01T15:42:17;27.60;99.90
12771;DHT22;6449;47.666;9.160;2022-08-01T15:47:17;27.40;99.90
12771;DHT22;6449;47.666;9.160;2022-08-01T15:52:13;27.10;99.90
12771;DHT22;6449;47.666;9.160;2022-08-01T15:57:13;27.20;99.90
12771;DHT22;6449;47.666;9.160;2022-08-01T16:02:08;27.20;99.90
12771;DHT22;6449;47.666;9.160;2022-08-01T16:07:02;27.40;99.90
12771;DHT22;6449;47.666;9.160;2022-08-01T16:11:55;27.60;99.90
12771;DHT22;6449;47.666;9.160;2022-08-01T16:16:49;27.80;99.90
12771;DHT22;6449;47.666;9.160;2022-08-01T16:21:44;27.80;99.90
12771;DHT22;6449;47.666;9.160;2022-08-01T16:26:38;27.70;99.90
12771;DHT22;6449;47.666;9.160;2022-08-01T16:31:32;27.70;99.90
12771;DHT22;6449;47.666;9.160;2022-08-01T16:36:47;27.70;99.90
12771;DHT22;6449;47.666;9.160;2022-08-01T16:41:40;27.70;99.90
12771;DHT22;6449;47.666;9.160;2022-08-01T16:46:34;27.80;99.90
12771;DHT22;6449;47.666;9.160;2022-08-01T16:51:28;27.80;99.90
12771;DHT22;6449;47.666;9.160;2022-08-01T16:56:25;27.90;99.90
12771;DHT22;6449;47.666;9.160;2022-08-01T17:01:18;27.70;99.90
12771;DHT22;6449;47.666;9.160;2022-08-01T17:06:32;27.60;99.90
12771;DHT22;6449;47.666;9.160;2022-08-01T17:11:27;27.60;99.90
12771;DHT22;6449;47.666;9.160;2022-08-01T17:16:20;27.50;99.90
12771;DHT22;6449;47.666;9.160;2022-08-01T17:21:14;27.30;99.90
12771;DHT22;6449;47.666;9.160;2022-08-01T17:26:08;27.00;99.90
12771;DHT22;6449;47.666;9.160;2022-08-01T17:31:02;26.80;99.90
12771;DHT22;6449;47.666;9.160;2022-08-01T17:36:01;26.50;99.90
12771;DHT22;6449;47.666;9.160;2022-08-01T17:40:54;26.50;99.90
12771;DHT22;6449;47.666;9.160;2022-08-01T17:45:48;26.50;99.90
12771;DHT22;6449;47.666;9.160;2022-08-01T17:50:44;26.40;99.90
12771;DHT22;6449;47.666;9.160;2022-08-01T17:55:39;26.40;99.90
12771;DHT22;6449;47.666;9.160;2022-08-01T18:00:48;26.40;99.90
12771;DHT22;6449;47.666;9.160;2022-08-01T18:05:44;26.40;99.90
12771;DHT22;6449;47.666;9.160;2022-08-01T18:10:43;26.20;99.90
12771;DHT22;6449;47.666;9.160;2022-08-01T18:15:37;26.00;99.90
12771;DHT22;6449;47.666;9.160;2022-08-01T18:20:31;25.90;99.90
12771;DHT22;6449;47.666;9.160;2022-08-01T18:25:30;25.80;99.90
12771;DHT22;6449;47.666;9.160;2022-08-01T18:30:26;25.70;99.90
12771;DHT22;6449;47.666;9.160;2022-08-01T18:35:20;25.60;99.90
12771;DHT22;6449;47.666;9.160;2022-08-01T18:40:36;25.60;99.90
12771;DHT22;6449;47.666;9.160;2022-08-01T18:45:30;25.40;99.90
12771;DHT22;6449;47.666;9.160;2022-08-01T18:50:29;25.30;99.90
12771;DHT22;6449;47.666;9.160;2022-08-01T18:55:22;25.30;99.90
12771;DHT22;6449;47.666;9.160;2022-08-01T19:00:18;25.00;99.90
12771;DHT22;6449;47.666;9.160;2022-08-01T19:05:11;24.80;99.90
12771;DHT22;6449;47.666;9.160;2022-08-01T19:10:05;24.70;99.90
12771;DHT22;6449;47.666;9.160;2022-08-01T19:15:08;24.70;99.90
12771;DHT22;6449;47.666;9.160;2022-08-01T19:20:05;24.50;99.90
12771;DHT22;6449;47.666;9.160;2022-08-01T19:24:59;24.30;99.90
12771;DHT22;6449;47.666;9.160;2022-08-01T19:29:56;24.00;99.90
12771;DHT22;6449;47.666;9.160;2022-08-01T19:35:00;23.90;99.90
12771;DHT22;6449;47.666;9.160;2022-08-01T19:39:58;23.70;99.90
12771;DHT22;6449;47.666;9.160;2022-08-01T19:44:54;23.80;99.90
12771;DHT22;6449;47.666;9.160;2022-08-01T19:49:49;23.90;99.90
12771;DHT22;6449;47.666;9.160;2022-08-01T19:54:46;24.20;99.90
12771;DHT22;6449;47.666;9.160;2022-08-01T19:59:45;24.20;99.90
12771;DHT22;6449;47.666;9.160;2022-08-01T20:04:41;24.00;99.90
12771;DHT22;6449;47.666;9.160;2022-08-01T20:09:36;24.10;99.90
12771;DHT22;6449;47.666;9.160;2022-08-01T20:14:36;24.20;99.90
12771;DHT22;6449;47.666;9.160;2022-08-01T20:19:30;24.10;99.90
12771;DHT22;6449;47.666;9.160;2022-08-01T20:24:25;24.20;99.90
12771;DHT22;6449;47.666;9.160;2022-08-01T20:29:22;24.10;99.90
12771;DHT22;6449;47.666;9.160;2022-08-01T20:34:22;23.90;99.90
12771;DHT22;6449;47.666;9.160;2022-08-01T20:39:17;24.00;99.90
12771;DHT22;6449;47.666;9.160;2022-08-01T20:44:14;24.10;99.90
12771;DHT22;6449;47.666;9.160;2022-08-01T20:49:11;23.80;99.90
12771;DHT22;6449;47.666;9.160;2022-08-01T20:54:06;23.80;99.90
12771;DHT22;6449;47.666;9.160;2022-08-01T20:59:09;23.60;99.90
12771;DHT22;6449;47.666;9.160;2022-08-01T21:04:48;23.40;99.90
12771;DHT22;6449;47.666;9.160;2022-08-01T21:09:53;23.10;99.90
12771;DHT22;6449;47.666;9.160;2022-08-01T21:14:52;23.10;99.90
12771;DHT22;6449;47.666;9.160;2022-08-01T21:19:52;23.00;99.90
12771;DHT22;6449;47.666;9.160;2022-08-01T21:24:52;22.90;99.90
12771;DHT22;6449;47.666;9.160;2022-08-01T21:29:54;22.70;99.90
12771;DHT22;6449;47.666;9.160;2022-08-01T21:34:50;22.60;99.90
12771;DHT22;6449;47.666;9.160;2022-08-01T21:39:44;22.70;99.90
12771;DHT22;6449;47.666;9.160;2022-08-01T21:44:42;22.70;99.90
12771;DHT22;6449;47.666;9.160;2022-08-01T21:49:37;22.80;99.90
12771;DHT22;6449;47.666;9.160;2022-08-01T21:54:38;22.50;99.90
12771;DHT22;6449;47.666;9.160;2022-08-01T21:59:47;22.50;99.90
12771;DHT22;6449;47.666;9.160;2022-08-01T22:04:52;22.30;99.90
12771;DHT22;6449;47.666;9.160;2022-08-01T22:09:54;22.40;99.90
12771;DHT22;6449;47.666;9.160;2022-08-01T22:14:53;22.40;99.90
12771;DHT22;6449;47.666;9.160;2022-08-01T22:19:50;22.50;99.90
12771;DHT22;6449;47.666;9.160;2022-08-01T22:24:46;22.50;99.90
12771;DHT22;6449;47.666;9.160;2022-08-01T22:29:41;22.30;99.90
12771;DHT22;6449;47.666;9.160;2022-08-01T22:34:36;22.30;99.90
12771;DHT22;6449;47.666;9.160;2022-08-01T22:39:30;22.30;99.90
12771;DHT22;6449;47.666;9.160;2022-08-01T22:44:27;22.00;99.90
12771;DHT22;6449;47.666;9.160;2022-08-01T22:49:34;21.90;99.90
12771;DHT22;6449;47.666;9.160;2022-08-01T22:54:37;21.90;99.90
12771;DHT22;6449;47.666;9.160;2022-08-01T22:59:38;21.50;99.90
12771;DHT22;6449;47.666;9.160;2022-08-01T23:04:43;21.30;99.90
12771;DHT22;6449;47.666;9.160;2022-08-01T23:09:38;21.50;99.90
12771;DHT22;6449;47.666;9.160;2022-08-01T23:14:46;21.70;99.90
12771;DHT22;6449;47.666;9.160;2022-08-01T23:19:43;22.00;99.90
12771;DHT22;6449;47.666;9.160;2022-08-01T23:24:39;21.90;99.90
12771;DHT22;6449;47.666;9.160;2022-08-01T23:29:55;21.70;99.90
12771;DHT22;6449;47.666;9.160;2022-08-01T23:34:51;21.80;99.90
12771;DHT22;6449;47.666;9.160;2022-08-01T23:39:45;21.70;99.90
12771;DHT22;6449;47.666;9.160;2022-08-01T23:44:40;21.50;99.90
12771;DHT22;6449;47.666;9.160;2022-08-01T23:49:34;21.40;99.90
12771;DHT22;6449;47.666;9.160;2022-08-01T23:54:45;21.40;99.90
12771;DHT22;6449;47.666;9.160;2022-08-01T23:59:40;21.40;99.90
